Time;durP1;ratioP1;P1;durP2;ratioP2;P2;SDS_P1;SDS_P2;PMS_P1;PMS_P2;Temp;Humidity;BMP_temperature;BMP_pressure;BME280_temperature;BME280_humidity;BME280_pressure;Samples;Min_cycle;Max_cycle;Signal;HPM_P1;HPM_P2
2023/06/17 00:02:09;;;;;;;4.83;3.60;;;22.00;99.90;;;;;;5059277;28;20212;-82
2023/06/17 00:04:34;;;;;;;7.20;4.63;;;22.00;1.00;;;;;;5057808;28;20159;-83
2023/06/17 00:07:01;;;;;;;6.37;4.40;;;21.90;99.90;;;;;;5056845;28;20541;-81
2023/06/17 00:09:27;;;;;;;6.50;4.10;;;21.90;1.00;;;;;;5058718;28;20167;-83
2023/06/17 00:11:54;;;;;;;7.90;3.97;;;21.80;62.50;;;;;;5061466;28;20181;-83
2023/06/17 00:14:20;;;;;;;11.03;4.67;;;21.80;99.90;;;;;;5044591;28;20227;-83
2023/06/17 00:16:47;;;;;;;6.73;4.03;;;21.80;99.90;;;;;;5066990;28;20200;-84
2023/06/17 00:19:16;;;;;;;9.53;4.20;;;21.70;99.90;;;;;;5063737;28;20173;-83
2023/06/17 00:21:49;;;;;;;8.27;4.03;;;21.60;99.90;;;;;;5039030;28;20268;-83
2023/06/17 00:24:19;;;;;;;9.20;4.03;;;21.60;33.60;;;;;;5056407;28;20714;-82
2023/06/17 00:26:46;;;;;;;6.13;4.20;;;21.60;99.90;;;;;;5056155;28;20172;-83
2023/06/17 00:29:12;;;;;;;8.33;3.97;;;21.50;99.90;;;;;;5056099;28;20237;-82
2023/06/17 00:31:37;;;;;;;5.07;4.20;;;21.50;1.00;;;;;;5059840;28;20218;-82
2023/06/17 00:34:03;;;;;;;7.20;3.90;;;21.50;1.00;;;;;;5060401;28;20173;-82
2023/06/17 00:36:30;;;;;;;6.40;4.07;;;21.50;15.40;;;;;;5071719;28;20251;-78
2023/06/17 00:38:56;;;;;;;7.57;4.20;;;21.50;68.40;;;;;;5075580;28;20157;-78
2023/06/17 00:41:21;;;;;;;6.13;4.37;;;21.40;1.00;;;;;;5076850;28;20182;-77
2023/06/17 00:43:47;;;;;;;7.97;4.20;;;21.40;99.90;;;;;;5074906;28;20169;-78
2023/06/17 00:46:40;;;;;;;7.73;3.90;;;21.40;1.00;;;;;;5069672;28;20176;-83
2023/06/17 00:49:30;;;;;;;6.87;3.90;;;21.40;1.00;;;;;;5067043;28;20147;-80
2023/06/17 00:52:25;;;;;;;5.90;3.97;;;21.40;99.90;;;;;;5066972;28;20190;-80
2023/06/17 00:54:52;;;;;;;7.80;4.27;;;21.40;99.90;;;;;;5049935;28;20178;-82
2023/06/17 00:57:18;;;;;;;5.90;3.80;;;21.40;1.00;;;;;;5048319;28;20182;-78
2023/06/17 00:59:45;;;;;;;5.37;4.27;;;21.40;1.00;;;;;;5063283;28;20212;-84
2023/06/17 01:02:13;;;;;;;8.83;4.40;;;21.30;1.00;;;;;;5044912;28;20185;-82
2023/06/17 01:04:42;;;;;;;7.53;4.13;;;21.30;1.00;;;;;;5046695;28;20278;-84
2023/06/17 01:07:13;;;;;;;7.43;4.23;;;21.20;17.40;;;;;;5063570;28;20175;-82
2023/06/17 01:09:45;;;;;;;6.87;3.77;;;21.20;99.90;;;;;;5064542;28;20174;-84
2023/06/17 01:12:12;;;;;;;5.53;4.00;;;21.20;99.90;;;;;;5064749;28;20232;-83
2023/06/17 01:14:40;;;;;;;7.17;3.90;;;21.10;99.90;;;;;;5047919;28;20648;-81
2023/06/17 01:17:16;;;;;;;8.70;4.20;;;21.10;99.90;;;;;;5066311;28;20165;-82
2023/06/17 01:19:48;;;;;;;6.67;5.03;;;21.10;99.90;;;;;;5066429;28;20173;-82
2023/06/17 01:22:16;;;;;;;8.80;4.30;;;21.00;99.90;;;;;;5063409;28;20299;-85
2023/06/17 01:24:45;;;;;;;7.27;4.53;;;21.00;1.00;;;;;;5064389;28;20162;-79
2023/06/17 01:27:11;;;;;;;7.23;4.47;;;21.00;1.00;;;;;;5075802;28;20192;-80
2023/06/17 01:29:37;;;;;;;5.67;4.70;;;21.00;1.00;;;;;;5056995;28;20169;-77
2023/06/17 01:32:05;;;;;;;7.03;5.00;;;21.00;99.90;;;;;;5072058;28;20642;-80
2023/06/17 01:34:53;;;;;;;7.80;4.47;;;20.90;99.90;;;;;;5047753;28;20202;-80
2023/06/17 01:37:29;;;;;;;7.40;4.33;;;20.90;48.10;;;;;;5055446;28;20181;-84
2023/06/17 01:40:02;;;;;;;6.03;4.53;;;20.90;99.90;;;;;;5055479;28;20182;-82
2023/06/17 01:42:35;;;;;;;6.57;4.40;;;20.90;99.90;;;;;;5055440;28;20162;-79
2023/06/17 01:45:05;;;;;;;6.97;4.57;;;20.90;99.90;;;;;;5069043;28;20173;-82
2023/06/17 01:47:32;;;;;;;5.80;4.57;;;20.90;99.90;;;;;;5079203;28;20215;-80
2023/06/17 01:49:59;;;;;;;6.47;4.10;;;20.90;99.90;;;;;;5074007;28;20197;-82
2023/06/17 01:52:26;;;;;;;7.43;3.93;;;21.00;99.90;;;;;;5068545;28;20170;-80
2023/06/17 01:58:18;;;;;;;6.53;4.10;;;20.90;99.90;;;;;;5055243;28;20252;-81
2023/06/17 02:00:44;;;;;;;8.10;4.37;;;20.80;1.00;;;;;;5054761;28;20169;-84
2023/06/17 02:03:11;;;;;;;6.80;4.30;;;20.70;1.00;;;;;;5053868;28;20600;-82
2023/06/17 02:05:37;;;;;;;8.00;4.87;;;20.80;99.90;;;;;;5058711;28;20179;-80
2023/06/17 02:08:05;;;;;;;6.97;4.37;;;20.70;99.90;;;;;;5067661;28;20169;-78
2023/06/17 02:10:31;;;;;;;6.17;3.87;;;20.80;99.90;;;;;;5064505;28;20216;-81
2023/06/17 02:12:57;;;;;;;7.57;4.37;;;20.70;99.90;;;;;;5056045;28;20223;-78
2023/06/17 02:15:24;;;;;;;6.10;4.50;;;20.60;99.90;;;;;;5055757;28;20165;-81
2023/06/17 02:17:51;;;;;;;7.37;4.37;;;20.50;99.90;;;;;;5054894;28;20182;-79
2023/06/17 02:20:20;;;;;;;6.83;4.60;;;20.50;99.90;;;;;;5036211;28;20574;-80
2023/06/17 02:22:45;;;;;;;7.53;4.20;;;20.40;1.00;;;;;;5054032;28;20171;-81
2023/06/17 02:25:11;;;;;;;6.57;4.40;;;20.40;1.00;;;;;;5054261;28;20204;-84
2023/06/17 02:27:38;;;;;;;8.03;4.47;;;20.40;1.00;;;;;;5055074;28;20195;-82
2023/06/17 02:30:05;;;;;;;4.97;4.10;;;20.40;1.00;;;;;;5055244;28;20220;-77
2023/06/17 02:32:30;;;;;;;8.40;4.40;;;20.30;1.00;;;;;;5054010;28;20223;-82
2023/06/17 02:34:57;;;;;;;6.43;4.67;;;20.30;1.00;;;;;;5054286;28;20247;-84
2023/06/17 02:37:23;;;;;;;6.27;4.30;;;20.40;1.00;;;;;;5054186;28;20182;-78
2023/06/17 02:39:49;;;;;;;7.17;4.27;;;20.40;1.00;;;;;;5053919;28;20184;-81
2023/06/17 02:42:15;;;;;;;8.27;4.00;;;20.40;1.00;;;;;;5054123;28;20167;-79
2023/06/17 02:44:40;;;;;;;8.17;4.30;;;20.40;99.90;;;;;;5054360;28;20209;-85
2023/06/17 02:47:06;;;;;;;6.60;4.43;;;20.40;1.00;;;;;;5054632;28;20663;-81
2023/06/17 02:49:32;;;;;;;7.00;5.07;;;20.40;1.00;;;;;;5053079;28;20204;-83
2023/06/17 02:51:57;;;;;;;5.27;4.10;;;20.40;99.90;;;;;;5054748;28;20177;-80
2023/06/17 02:54:23;;;;;;;6.47;4.03;;;20.40;1.00;;;;;;5053576;28;20697;-80
2023/06/17 02:56:49;;;;;;;5.90;4.00;;;20.50;1.00;;;;;;5070451;28;20225;-78
2023/06/17 02:59:15;;;;;;;7.20;4.47;;;20.50;1.00;;;;;;5071966;28;20195;-82
2023/06/17 03:01:42;;;;;;;7.83;4.43;;;20.40;1.00;;;;;;5074437;28;20161;-77
2023/06/17 03:04:12;;;;;;;6.03;4.20;;;20.40;1.00;;;;;;5073465;28;20168;-79
2023/06/17 03:06:44;;;;;;;5.80;4.20;;;20.40;99.90;;;;;;5056425;28;20613;-80
2023/06/17 03:09:11;;;;;;;7.50;4.70;;;20.40;99.90;;;;;;5057360;28;20165;-83
2023/06/17 03:11:36;;;;;;;9.33;4.70;;;20.40;99.90;;;;;;5054092;28;20192;-78
2023/06/17 03:14:07;;;;;;;11.63;4.77;;;20.50;99.90;;;;;;5055937;28;20145;-83
2023/06/17 03:16:34;;;;;;;6.77;4.67;;;20.60;1.00;;;;;;5060786;28;20161;-81
2023/06/17 03:19:01;;;;;;;6.23;4.30;;;20.60;33.90;;;;;;5055664;28;20173;-83
2023/06/17 03:21:29;;;;;;;10.83;5.10;;;20.50;1.00;;;;;;5035073;28;20173;-84
2023/06/17 03:24:01;;;;;;;8.37;4.87;;;20.40;99.90;;;;;;5034249;28;20529;-85
2023/06/17 03:26:27;;;;;;;7.50;4.97;;;20.30;99.90;;;;;;5034561;28;20237;-81
2023/06/17 03:28:53;;;;;;;6.53;4.90;;;20.40;1.00;;;;;;5035848;28;20171;-80
2023/06/17 03:31:21;;;;;;;7.20;4.53;;;20.30;29.10;;;;;;5053739;28;20203;-80
2023/06/17 03:33:53;;;;;;;7.17;4.77;;;20.30;99.90;;;;;;5052732;28;20174;-85
2023/06/17 03:36:24;;;;;;;6.10;4.90;;;20.20;99.90;;;;;;5052638;28;20199;-78
2023/06/17 03:38:50;;;;;;;8.07;5.00;;;20.10;99.90;;;;;;5052037;28;20223;-85
2023/06/17 03:41:17;;;;;;;6.17;4.87;;;20.00;1.00;;;;;;5053355;28;20193;-82
2023/06/17 03:43:43;;;;;;;7.53;5.50;;;20.00;1.00;;;;;;5034919;28;20176;-82
2023/06/17 03:46:09;;;;;;;7.83;4.83;;;20.00;1.00;;;;;;5053236;28;20516;-84
2023/06/17 03:48:35;;;;;;;10.33;5.90;;;19.90;1.00;;;;;;5053866;28;20620;-84
2023/06/17 03:51:02;;;;;;;6.67;5.33;;;19.80;61.50;;;;;;5037814;28;20240;-82
2023/06/17 03:53:28;;;;;;;9.27;5.63;;;19.70;99.90;;;;;;5052742;28;20530;-84
2023/06/17 03:55:53;;;;;;;11.20;5.47;;;19.70;99.90;;;;;;5056226;28;20226;-83
2023/06/17 03:58:19;;;;;;;9.63;5.13;;;19.60;99.90;;;;;;5053639;28;20708;-84
2023/06/17 04:00:47;;;;;;;8.67;5.37;;;19.60;99.90;;;;;;5052533;28;20618;-83
2023/06/17 04:03:13;;;;;;;8.20;4.90;;;19.60;99.90;;;;;;5052405;28;20172;-84
2023/06/17 04:05:40;;;;;;;9.67;5.43;;;19.60;99.90;;;;;;5036055;28;20201;-82
2023/06/17 04:08:06;;;;;;;11.63;5.47;;;19.60;99.90;;;;;;5052857;28;20164;-82
2023/06/17 04:10:32;;;;;;;6.63;5.30;;;19.60;99.90;;;;;;5052528;28;20254;-83
2023/06/17 04:12:58;;;;;;;7.60;5.10;;;19.60;99.90;;;;;;5037514;28;20696;-79
2023/06/17 04:15:23;;;;;;;6.10;5.30;;;19.50;99.90;;;;;;5037594;28;20182;-84
2023/06/17 04:17:49;;;;;;;6.80;5.03;;;19.40;99.90;;;;;;5064925;28;20172;-81
2023/06/17 04:20:15;;;;;;;10.00;5.63;;;19.30;99.90;;;;;;5051324;28;20178;-81
2023/06/17 04:22:42;;;;;;;7.30;4.87;;;19.30;99.90;;;;;;5072099;28;20220;-82
2023/06/17 04:25:10;;;;;;;7.40;5.20;;;19.30;99.90;;;;;;5073250;28;20237;-78
2023/06/17 04:27:38;;;;;;;8.10;5.20;;;19.30;99.90;;;;;;5046618;28;20179;-83
2023/06/17 04:30:07;;;;;;;8.10;5.67;;;19.20;99.90;;;;;;5060551;28;20195;-83
2023/06/17 04:32:38;;;;;;;7.33;5.27;;;19.20;99.90;;;;;;5072173;28;20179;-80
2023/06/17 04:35:06;;;;;;;8.50;5.83;;;19.20;99.90;;;;;;5076386;28;20171;-79
2023/06/17 04:37:40;;;;;;;8.80;6.20;;;19.30;99.90;;;;;;5074735;28;20194;-77
2023/06/17 04:40:12;;;;;;;10.77;5.97;;;19.20;99.90;;;;;;5072339;28;20228;-78
2023/06/17 04:42:44;;;;;;;10.57;5.87;;;19.20;99.90;;;;;;5066894;28;20147;-81
2023/06/17 04:45:18;;;;;;;9.20;5.93;;;19.20;99.90;;;;;;5080277;28;20177;-82
2023/06/17 04:47:50;;;;;;;9.73;5.80;;;19.20;99.90;;;;;;5055191;28;20174;-79
2023/06/17 04:50:16;;;;;;;10.27;6.43;;;19.20;99.90;;;;;;5066441;28;20205;-83
2023/06/17 04:52:48;;;;;;;11.23;5.80;;;19.10;99.90;;;;;;5056454;28;20170;-80
2023/06/17 04:55:14;;;;;;;8.43;5.73;;;19.00;99.90;;;;;;5056229;28;20170;-82
2023/06/17 04:57:41;;;;;;;11.30;6.03;;;19.00;99.90;;;;;;5054284;28;20171;-78
2023/06/17 05:00:08;;;;;;;11.63;5.97;;;19.00;99.90;;;;;;5038346;28;20189;-83
2023/06/17 05:02:34;;;;;;;9.90;6.37;;;19.10;99.90;;;;;;5055885;28;20173;-82
2023/06/17 05:05:00;;;;;;;11.33;6.77;;;19.20;99.90;;;;;;5061472;28;20165;-84
2023/06/17 05:07:26;;;;;;;8.73;6.07;;;19.20;99.90;;;;;;5062632;28;20192;-82
2023/06/17 05:09:57;;;;;;;13.80;6.13;;;19.30;99.90;;;;;;5077808;28;20187;-80
2023/06/17 05:12:23;;;;;;;13.07;6.63;;;19.30;99.90;;;;;;5064776;28;20178;-82
2023/06/17 05:14:52;;;;;;;9.53;5.90;;;19.30;99.90;;;;;;5042336;28;20184;-80
2023/06/17 05:20:37;;;;;;;12.40;6.20;;;19.40;99.90;;;;;;5055688;28;20212;-79
2023/06/17 05:23:03;;;;;;;6.80;5.90;;;19.50;99.90;;;;;;5054966;28;20175;-82
2023/06/17 05:25:28;;;;;;;8.33;5.80;;;19.40;99.90;;;;;;5054442;28;20178;-83
2023/06/17 05:27:54;;;;;;;10.57;6.03;;;19.40;99.90;;;;;;5053779;28;20186;-81
2023/06/17 05:30:20;;;;;;;11.23;5.97;;;19.50;99.90;;;;;;5055369;28;20242;-84
2023/06/17 05:32:45;;;;;;;8.97;6.23;;;19.50;99.90;;;;;;5054242;28;20218;-84
2023/06/17 05:35:11;;;;;;;11.57;6.53;;;19.50;99.90;;;;;;5055093;28;20171;-84
2023/06/17 05:37:37;;;;;;;11.10;5.67;;;19.60;99.90;;;;;;5054908;28;20273;-82
2023/06/17 05:40:05;;;;;;;8.17;5.80;;;19.60;99.90;;;;;;5054796;28;20202;-83
2023/06/17 05:42:30;;;;;;;12.10;5.80;;;19.70;99.90;;;;;;5054156;28;20174;-83
2023/06/17 05:44:56;;;;;;;6.37;5.10;;;19.70;99.90;;;;;;5054524;28;20183;-78
2023/06/17 05:47:22;;;;;;;9.13;5.47;;;19.80;99.90;;;;;;5055041;28;20169;-80
2023/06/17 05:49:47;;;;;;;10.53;6.40;;;20.30;99.90;;;;;;5061559;28;20624;-80
2023/06/17 05:52:13;;;;;;;7.00;5.30;;;20.30;99.70;;;;;;5070417;28;20178;-76
2023/06/17 05:54:39;;;;;;;10.70;5.33;;;20.40;99.90;;;;;;5066970;28;20176;-83
2023/06/17 05:57:05;;;;;;;9.90;5.23;;;20.80;59.20;;;;;;5056622;28;20173;-80
2023/06/17 05:59:30;;;;;;;10.77;6.03;;;21.00;1.00;;;;;;5055791;28;20166;-86
2023/06/17 06:01:56;;;;;;;10.00;6.50;;;21.10;1.00;;;;;;5055012;28;20510;-81
2023/06/17 06:04:22;;;;;;;9.70;6.60;;;21.10;1.00;;;;;;5055613;28;20176;-80
2023/06/17 06:06:47;;;;;;;8.63;6.60;;;20.90;1.00;;;;;;5055798;28;20195;-80
2023/06/17 06:09:13;;;;;;;10.27;6.73;;;20.90;1.00;;;;;;5055319;28;20222;-86
2023/06/17 06:11:39;;;;;;;8.57;6.07;;;20.90;1.00;;;;;;5056615;28;20210;-85
2023/06/17 06:14:04;;;;;;;9.87;6.57;;;21.10;1.00;;;;;;5055096;28;20218;-84
2023/06/17 06:16:31;;;;;;;9.93;7.03;;;21.10;1.00;;;;;;5058550;28;20628;-78
2023/06/17 06:18:57;;;;;;;8.17;6.27;;;21.20;99.90;;;;;;5070760;28;20177;-81
2023/06/17 06:21:23;;;;;;;11.17;6.40;;;21.30;99.90;;;;;;5064939;28;20180;-80
2023/06/17 06:23:49;;;;;;;8.83;6.13;;;21.60;99.90;;;;;;5057490;28;20261;-87
2023/06/17 06:26:14;;;;;;;9.10;6.40;;;21.80;60.80;;;;;;5055378;28;20169;-77
2023/06/17 06:28:42;;;;;;;8.37;6.70;;;21.80;1.00;;;;;;5055840;28;20169;-78
2023/06/17 06:31:08;;;;;;;7.53;6.20;;;21.80;99.90;;;;;;5055047;28;20201;-85
2023/06/17 06:33:35;;;;;;;10.73;5.97;;;21.70;1.00;;;;;;5054639;28;20194;-86
2023/06/17 06:36:01;;;;;;;12.37;6.67;;;21.80;1.00;;;;;;5055768;28;20565;-87
2023/06/17 06:38:26;;;;;;;10.73;6.57;;;21.60;99.90;;;;;;5055729;28;20185;-85
2023/06/17 06:40:52;;;;;;;8.57;6.63;;;21.40;99.90;;;;;;5055315;28;20177;-84
2023/06/17 06:43:17;;;;;;;8.57;6.53;;;21.60;99.90;;;;;;5061354;28;20177;-84
2023/06/17 06:45:43;;;;;;;9.07;6.10;;;21.60;99.90;;;;;;5076833;28;20174;-83
2023/06/17 06:48:10;;;;;;;6.93;5.67;;;21.70;99.90;;;;;;5078009;28;20173;-81
2023/06/17 06:50:36;;;;;;;8.90;6.37;;;21.70;99.90;;;;;;5077023;28;20225;-77
2023/06/17 06:53:01;;;;;;;7.67;5.90;;;21.90;1.00;;;;;;5076867;28;20200;-82
2023/06/17 06:55:30;;;;;;;8.90;6.27;;;21.80;1.00;;;;;;5075740;28;20174;-81
2023/06/17 06:58:00;;;;;;;11.83;7.00;;;21.90;1.00;;;;;;5068333;28;20694;-85
2023/06/17 07:00:34;;;;;;;10.70;6.37;;;21.80;99.90;;;;;;5056698;28;20229;-86
2023/06/17 07:03:22;;;;;;;10.33;6.20;;;22.00;99.90;;;;;;5057058;28;20216;-87
2023/06/17 07:05:47;;;;;;;8.57;5.93;;;22.30;1.00;;;;;;5039390;28;20208;-90
2023/06/17 07:08:14;;;;;;;7.07;5.50;;;22.30;99.90;;;;;;5059445;28;20171;-80
2023/06/17 07:10:40;;;;;;;10.20;6.63;;;22.30;99.90;;;;;;5072098;28;20214;-83
2023/06/17 07:13:07;;;;;;;8.87;6.73;;;22.40;99.90;;;;;;5071243;28;20158;-84
2023/06/17 07:15:32;;;;;;;9.20;6.47;;;22.60;1.00;;;;;;5064210;28;20523;-86
2023/06/17 07:17:58;;;;;;;11.10;6.77;;;22.60;99.90;;;;;;5058608;28;20178;-86
2023/06/17 07:20:30;;;;;;;7.30;6.10;;;22.70;1.00;;;;;;5056058;28;20192;-77
2023/06/17 07:22:55;;;;;;;9.17;6.30;;;22.70;1.00;;;;;;5038770;28;20176;-79
2023/06/17 07:25:21;;;;;;;10.37;6.70;;;22.60;1.00;;;;;;5054629;28;20187;-81
2023/06/17 07:27:50;;;;;;;7.90;5.93;;;22.70;1.00;;;;;;5056335;28;20168;-87
2023/06/17 07:30:16;;;;;;;8.90;6.70;;;22.90;1.00;;;;;;5038066;28;20200;-86
2023/06/17 07:32:42;;;;;;;8.03;6.70;;;23.10;97.80;;;;;;5054941;28;20177;-83
2023/06/17 07:35:08;;;;;;;9.27;6.13;;;22.90;14.70;;;;;;5056235;28;20255;-84
2023/06/17 07:37:33;;;;;;;10.27;6.70;;;23.00;99.90;;;;;;5055378;28;20196;-84
2023/06/17 07:39:59;;;;;;;11.00;6.70;;;23.10;1.00;;;;;;5053997;28;20189;-85
2023/06/17 07:42:25;;;;;;;8.57;6.60;;;23.10;99.90;;;;;;5034515;28;20249;-80
2023/06/17 07:44:51;;;;;;;8.43;6.50;;;23.20;99.90;;;;;;5068182;28;20285;-84
2023/06/17 07:47:16;;;;;;;10.93;6.57;;;23.30;1.00;;;;;;5052684;28;20180;-85
2023/06/17 07:49:44;;;;;;;8.70;5.57;;;23.30;99.90;;;;;;5053815;28;20237;-82
2023/06/17 07:52:09;;;;;;;8.93;6.37;;;23.40;1.00;;;;;;5060217;28;20644;-81
2023/06/17 07:54:35;;;;;;;8.93;5.90;;;23.40;1.00;;;;;;5052240;28;20176;-80
2023/06/17 07:57:02;;;;;;;12.00;6.40;;;23.70;1.00;;;;;;5054328;28;20172;-79
2023/06/17 07:59:29;;;;;;;10.13;6.30;;;24.00;68.70;;;;;;5054469;28;20165;-85
2023/06/17 08:01:55;;;;;;;7.77;6.00;;;24.10;1.00;;;;;;5060330;28;20166;-82
2023/06/17 08:04:20;;;;;;;8.63;6.30;;;24.10;99.90;;;;;;5066208;28;20172;-82
2023/06/17 08:06:46;;;;;;;9.73;6.03;;;24.20;1.00;;;;;;5063299;28;20183;-82
2023/06/17 08:09:12;;;;;;;7.80;6.20;;;24.20;1.00;;;;;;5062034;28;20172;-82
2023/06/17 08:11:38;;;;;;;14.90;6.43;;;24.20;99.90;;;;;;5057094;28;20200;-79
2023/06/17 08:14:04;;;;;;;10.57;5.97;;;24.20;99.90;;;;;;5054124;28;20176;-75
2023/06/17 08:16:29;;;;;;;7.23;6.23;;;24.30;99.90;;;;;;5056087;28;20196;-78
2023/06/17 08:18:55;;;;;;;9.40;6.50;;;24.00;1.00;;;;;;5055854;28;20249;-78
2023/06/17 08:21:21;;;;;;;9.30;6.97;;;24.00;1.00;;;;;;5056416;28;20540;-78
2023/06/17 08:23:49;;;;;;;9.27;5.97;;;24.00;1.00;;;;;;5055485;28;20585;-76
2023/06/17 08:26:15;;;;;;;9.00;5.97;;;24.20;20.40;;;;;;5056004;28;20219;-76
2023/06/17 08:28:41;;;;;;;9.20;6.07;;;24.40;1.00;;;;;;5058653;28;20177;-74
2023/06/17 08:31:06;;;;;;;9.00;5.87;;;24.40;99.90;;;;;;5057487;28;20201;-78
2023/06/17 08:33:32;;;;;;;8.30;6.00;;;24.40;99.90;;;;;;5055351;28;20574;-74
2023/06/17 08:35:58;;;;;;;9.20;6.17;;;24.60;99.90;;;;;;5055007;28;20528;-77
2023/06/17 08:38:23;;;;;;;11.83;6.13;;;24.80;1.00;;;;;;5037863;28;20557;-75
2023/06/17 08:40:49;;;;;;;8.90;5.80;;;24.80;1.00;;;;;;5055230;28;20165;-76
2023/06/17 08:43:19;;;;;;;10.30;6.13;;;24.70;99.90;;;;;;5053755;28;20251;-78
2023/06/17 08:45:49;;;;;;;7.97;5.70;;;24.80;99.90;;;;;;5054064;28;20161;-77
2023/06/17 08:48:15;;;;;;;11.40;5.97;;;24.80;99.90;;;;;;5055983;28;20165;-77
2023/06/17 08:50:41;;;;;;;6.47;5.40;;;24.90;99.90;;;;;;5055435;28;20208;-76
2023/06/17 08:53:08;;;;;;;9.23;5.60;;;25.10;99.90;;;;;;5055596;28;20169;-76
2023/06/17 08:55:34;;;;;;;9.03;5.77;;;25.20;1.00;;;;;;5054220;28;20715;-79
2023/06/17 08:58:01;;;;;;;10.67;6.30;;;25.30;1.00;;;;;;5054974;28;20221;-77
2023/06/17 09:00:26;;;;;;;9.67;6.07;;;25.30;1.00;;;;;;5054391;28;20244;-76
2023/06/17 09:02:58;;;;;;;6.27;5.23;;;25.30;1.00;;;;;;5054958;28;20161;-75
2023/06/17 09:05:23;;;;;;;7.40;6.07;;;25.40;1.00;;;;;;5054854;28;20169;-78
2023/06/17 09:07:49;;;;;;;7.90;5.73;;;25.40;1.00;;;;;;5055130;28;20172;-77
2023/06/17 09:10:15;;;;;;;7.70;5.80;;;25.70;1.00;;;;;;5035377;28;20197;-75
2023/06/17 09:12:41;;;;;;;8.53;5.50;;;26.00;99.90;;;;;;5035231;28;20158;-80
2023/06/17 09:15:10;;;;;;;11.20;6.27;;;26.30;99.90;;;;;;5035995;28;20234;-77
2023/06/17 09:17:38;;;;;;;8.07;5.70;;;26.50;99.90;;;;;;5035896;28;20231;-78
2023/06/17 09:20:12;;;;;;;8.37;5.50;;;26.80;80.10;;;;;;5033486;28;20198;-76
2023/06/17 09:22:39;;;;;;;9.27;5.97;;;26.90;1.00;;;;;;5035106;28;20169;-75
2023/06/17 09:25:11;;;;;;;11.47;5.60;;;26.90;1.00;;;;;;5035301;28;20178;-79
2023/06/17 09:27:44;;;;;;;5.95;4.90;;;26.70;1.00;;;;;;5033854;28;20160;-78
2023/06/17 09:30:10;;;;;;;8.77;5.45;;;26.70;1.00;;;;;;5034784;28;20263;-75
2023/06/17 09:32:43;;;;;;;8.40;5.40;;;27.00;1.00;;;;;;5034917;28;20169;-79
2023/06/17 09:35:15;;;;;;;8.07;5.35;;;26.90;1.00;;;;;;5034537;28;20172;-77
2023/06/17 09:37:50;;;;;;;7.27;5.73;;;26.70;1.00;;;;;;5034429;28;20614;-77
2023/06/17 09:40:16;;;;;;;11.02;5.72;;;26.60;1.00;;;;;;5032861;28;20181;-77
2023/06/17 09:42:46;;;;;;;10.50;6.18;;;26.90;1.00;;;;;;5034778;28;20252;-75
2023/06/17 09:45:24;;;;;;;8.35;5.50;;;27.00;99.90;;;;;;5033331;28;20180;-78
2023/06/17 09:47:54;;;;;;;8.27;5.20;;;27.10;1.00;;;;;;5018379;28;20239;-78
2023/06/17 09:50:22;;;;;;;7.93;5.72;;;27.10;1.00;;;;;;5034855;28;20706;-80
2023/06/17 09:52:52;;;;;;;10.13;5.97;;;27.10;99.90;;;;;;5045658;28;20188;-77
2023/06/17 09:55:19;;;;;;;8.23;5.40;;;27.20;99.90;;;;;;5053145;28;20185;-76
2023/06/17 09:57:46;;;;;;;8.02;5.38;;;27.30;99.90;;;;;;5054381;28;20203;-80
2023/06/17 10:00:14;;;;;;;6.03;5.13;;;27.40;99.90;;;;;;5036277;28;20199;-81
2023/06/17 10:02:40;;;;;;;7.80;5.30;;;27.60;99.90;;;;;;5054594;28;20629;-76
2023/06/17 10:05:15;;;;;;;9.40;5.93;;;27.80;99.90;;;;;;5053322;28;20176;-80
2023/06/17 10:07:43;;;;;;;8.10;5.40;;;28.10;99.90;;;;;;5056096;28;20179;-82
2023/06/17 10:10:11;;;;;;;7.00;5.35;;;28.40;99.90;;;;;;5034190;28;20207;-80
2023/06/17 10:12:41;;;;;;;11.15;5.50;;;28.30;99.90;;;;;;5046390;28;20175;-75
2023/06/17 10:15:07;;;;;;;8.90;5.60;;;28.10;99.90;;;;;;5051666;28;20251;-79
2023/06/17 10:17:35;;;;;;;7.03;5.60;;;28.00;99.90;;;;;;5052934;28;20188;-78
2023/06/17 10:20:05;;;;;;;10.40;5.55;;;28.40;33.80;;;;;;5052782;28;20161;-79
2023/06/17 10:22:33;;;;;;;8.40;4.50;;;28.50;3.40;;;;;;5052303;28;20165;-76
2023/06/17 10:25:00;;;;;;;11.65;4.38;;;28.40;1.00;;;;;;5051328;28;20172;-76
2023/06/17 10:27:25;;;;;;;6.60;4.38;;;28.50;1.00;;;;;;5033056;28;20239;-77
2023/06/17 10:29:51;;;;;;;9.88;5.65;;;28.80;1.00;;;;;;5034875;28;20581;-77
2023/06/17 10:32:24;;;;;;;7.93;4.55;;;29.10;1.00;;;;;;5034224;28;20184;-76
2023/06/17 10:35:05;;;;;;;7.60;4.43;;;29.30;1.00;;;;;;5033023;28;20530;-77
2023/06/17 10:37:37;;;;;;;8.60;4.53;;;29.50;99.90;;;;;;5050791;28;20189;-78
2023/06/17 10:40:23;;;;;;;8.90;4.10;;;29.80;99.90;;;;;;5060929;28;20203;-81
2023/06/17 10:43:00;;;;;;;7.35;4.70;;;29.80;99.90;;;;;;5072169;28;20251;-79
2023/06/17 10:45:31;;;;;;;8.02;4.32;;;29.60;99.90;;;;;;5061889;28;20177;-82
2023/06/17 10:48:19;;;;;;;7.82;4.70;;;29.50;99.90;;;;;;5057589;28;20169;-81
2023/06/17 10:50:51;;;;;;;9.68;4.47;;;29.40;99.90;;;;;;5057272;28;20683;-85
2023/06/17 10:53:24;;;;;;;5.28;4.22;;;29.50;99.90;;;;;;5057363;28;20215;-85
2023/06/17 10:55:50;;;;;;;5.70;4.40;;;29.50;99.90;;;;;;5059301;28;20165;-82
2023/06/17 10:58:17;;;;;;;6.88;4.80;;;29.70;99.90;;;;;;5063868;28;20161;-82
2023/06/17 11:01:06;;;;;;;4.93;4.43;;;29.90;99.90;;;;;;5063696;28;20227;-83
2023/06/17 11:03:32;;;;;;;5.82;4.70;;;30.00;99.90;;;;;;5048097;28;20177;-82
2023/06/17 11:06:09;;;;;;;7.30;5.13;;;30.00;99.90;;;;;;5067679;28;20149;-83
2023/06/17 11:08:38;;;;;;;6.82;4.68;;;29.70;99.90;;;;;;5047504;28;20210;-82
2023/06/17 11:11:14;;;;;;;8.85;4.65;;;29.80;99.90;;;;;;5067161;28;20219;-84
2023/06/17 11:13:47;;;;;;;6.97;4.70;;;29.40;99.90;;;;;;5048492;28;20180;-86
2023/06/17 11:16:12;;;;;;;7.22;4.82;;;29.10;99.90;;;;;;5043693;28;20228;-85
2023/06/17 11:18:40;;;;;;;8.23;4.75;;;28.70;99.90;;;;;;5046922;28;20173;-85
2023/06/17 11:21:07;;;;;;;7.28;4.60;;;29.10;99.90;;;;;;5026020;28;20316;-85
2023/06/17 11:23:35;;;;;;;7.85;4.05;;;29.50;99.90;;;;;;5056833;28;20228;-86
2023/06/17 11:26:02;;;;;;;8.05;4.57;;;29.90;99.90;;;;;;5059232;28;20195;-85
2023/06/17 11:28:31;;;;;;;5.65;3.85;;;30.20;99.90;;;;;;5054465;28;20505;-83
2023/06/17 11:31:07;;;;;;;5.07;4.05;;;30.40;99.90;;;;;;5068338;28;20189;-82
2023/06/17 11:33:36;;;;;;;5.50;3.83;;;30.20;99.90;;;;;;5050358;28;20178;-82
2023/06/17 11:36:07;;;;;;;4.80;4.05;;;30.30;99.90;;;;;;5067031;28;20204;-82
2023/06/17 11:38:34;;;;;;;5.43;4.20;;;30.40;99.90;;;;;;5051989;28;20203;-84
2023/06/17 11:41:00;;;;;;;8.25;5.43;;;30.60;99.90;;;;;;5043056;28;20216;-84
2023/06/17 11:43:26;;;;;;;6.20;4.60;;;30.80;99.90;;;;;;5039985;28;20679;-85
2023/06/17 11:46:02;;;;;;;8.07;3.88;;;30.80;99.90;;;;;;5052591;28;20181;-85
2023/06/17 11:48:28;;;;;;;6.90;4.20;;;30.50;99.90;;;;;;5063310;28;20179;-84
2023/06/17 11:50:56;;;;;;;6.68;4.28;;;30.50;99.90;;;;;;5053599;28;20266;-83
2023/06/17 11:53:36;;;;;;;6.47;3.90;;;30.70;99.90;;;;;;5071761;28;20184;-82
2023/06/17 11:56:06;;;;;;;6.05;4.68;;;30.70;99.90;;;;;;5049433;28;20177;-83
2023/06/17 11:58:47;;;;;;;5.63;4.32;;;30.70;99.90;;;;;;5044064;28;20173;-83
2023/06/17 12:01:13;;;;;;;7.13;4.70;;;30.70;99.90;;;;;;5035039;28;20185;-82
2023/06/17 12:03:54;;;;;;;7.88;5.20;;;30.50;99.90;;;;;;5049378;28;20173;-84
2023/06/17 12:06:21;;;;;;;7.32;4.70;;;30.40;99.90;;;;;;5058941;28;20172;-84
2023/06/17 12:09:03;;;;;;;8.60;4.68;;;30.40;99.90;;;;;;5061149;28;20172;-85
2023/06/17 12:11:41;;;;;;;7.13;5.32;;;30.30;99.90;;;;;;5043426;28;20223;-84
2023/06/17 12:14:13;;;;;;;8.02;5.07;;;30.40;99.90;;;;;;5064447;28;20173;-85
2023/06/17 12:16:47;;;;;;;8.05;4.72;;;30.20;99.90;;;;;;5046096;28;20626;-84
2023/06/17 12:19:22;;;;;;;7.07;4.65;;;29.60;99.90;;;;;;5061348;28;20625;-85
2023/06/17 12:21:48;;;;;;;9.27;5.20;;;29.50;99.90;;;;;;5041349;28;20176;-85
2023/06/17 12:24:17;;;;;;;8.57;4.93;;;29.40;99.90;;;;;;5058790;28;20259;-84
2023/06/17 12:26:44;;;;;;;9.65;5.43;;;29.70;99.90;;;;;;5040991;28;20176;-84
2023/06/17 12:29:11;;;;;;;7.95;5.20;;;29.90;99.90;;;;;;5041404;28;20176;-84
2023/06/17 12:31:37;;;;;;;7.82;5.07;;;29.70;99.90;;;;;;5058058;28;20209;-84
2023/06/17 12:34:03;;;;;;;8.40;5.20;;;29.70;99.90;;;;;;5059163;28;20197;-83
2023/06/17 12:36:31;;;;;;;6.00;5.00;;;29.80;99.90;;;;;;5040216;28;20736;-83
2023/06/17 12:38:57;;;;;;;7.05;4.75;;;30.10;99.90;;;;;;5040070;28;20238;-84
2023/06/17 12:41:23;;;;;;;8.70;4.60;;;30.40;99.90;;;;;;5041254;28;20181;-84
2023/06/17 12:43:48;;;;;;;6.43;4.47;;;30.70;99.90;;;;;;5040394;28;20184;-84
2023/06/17 12:46:14;;;;;;;6.60;4.32;;;30.40;99.90;;;;;;5057045;28;20211;-85
2023/06/17 12:48:43;;;;;;;5.40;4.40;;;30.40;99.90;;;;;;5039354;28;20263;-86
2023/06/17 12:51:09;;;;;;;6.45;4.80;;;30.70;99.90;;;;;;5039324;28;20215;-85
2023/06/17 12:53:34;;;;;;;5.30;3.95;;;30.70;99.90;;;;;;5057984;28;20617;-87
2023/06/17 12:56:00;;;;;;;6.88;4.30;;;30.60;99.90;;;;;;5039644;28;20169;-87
2023/06/17 12:58:26;;;;;;;5.10;4.20;;;30.30;99.90;;;;;;5058648;28;20222;-85
2023/06/17 13:00:53;;;;;;;5.75;4.18;;;30.30;99.90;;;;;;5056252;28;20180;-84